This is the latest recevied weather packets stored in our database for station/object LB9CG. If no packets are shown the sender has not sent any weather packets the latest 10 day(s).
| Time | Temp. | Humidity | Pressure | Rain* | Wind** | Luminosity | Snow |
|---|---|---|---|---|---|---|---|
| 1777870816 | 3.89° C | 90% | 994.7 hPa | 0 mm | - | - | - |
| 1777866016 | 3.33° C | 88% | 995.3 hPa | 0 mm | - | - | - |
| 1777864216 | 3.33° C | 81% | 996.1 hPa | 0 mm | - | - | - |
| 1777860036 | 4.44° C | 75% | 996.9 hPa | 0 mm | - | - | - |
| 1777855217 | 3.89° C | 77% | 998.5 hPa | 0 mm | - | - | - |
| 1777852817 | 3.89° C | 77% | 999 hPa | 0 mm | - | - | - |
| 1777852217 | 4.44° C | 77% | 999.2 hPa | 0 mm | - | - | - |
| 1777846817 | 4.44° C | 75% | 1000.5 hPa | 0 mm | - | - | - |
| 1777846217 | 4.44° C | 76% | 1000.5 hPa | 0 mm | - | - | - |
| 1777843217 | 4.44° C | 75% | 1001.1 hPa | 0 mm | - | - | - |
| 1777841417 | 5° C | 74% | 1001.7 hPa | 0 mm | - | - | - |
| 1777837217 | 5° C | 73% | 1002.5 hPa | 0 mm | - | - | - |
| 1777836017 | 5° C | 71% | 1002.6 hPa | 0 mm | - | - | - |
| 1777833617 | 5.56° C | 67% | 1002.9 hPa | 0 mm | - | - | - |
| 1777831818 | 5.56° C | 69% | 1003 hPa | 0 mm | - | - | - |
| 1777827037 | 5° C | 73% | 1003.6 hPa | 0 mm | - | - | - |
| 1777821017 | 5° C | 72% | 1005 hPa | 0 mm | - | - | - |
| 1777819817 | 5° C | 72% | 1005.3 hPa | 0 mm | - | - | - |
| 1777819217 | 5.56° C | 71% | 1005.3 hPa | 0 mm | - | - | - |
| 1777811416 | 5.56° C | 66% | 1006.7 hPa | 0 mm | - | - | - |
| 1777804216 | 4.44° C | 80% | 1007.4 hPa | 0 mm | - | - | - |
| 1777803616 | 4.44° C | 81% | 1007.6 hPa | 0 mm | - | - | - |
| 1777802416 | 4.44° C | 78% | 1007.8 hPa | 0 mm | - | - | - |
| 1777798216 | 4.44° C | 80% | 1008.3 hPa | 0 mm | - | - | - |
| 1777797636 | 4.44° C | 80% | 1008.3 hPa | 0 mm | - | - | - |
* Rain latest hour (hover to see other rain measurements)
** Current wind speed in m/s (hover to see current wind gust speed)